Terminal Aerodrome Forecast
Issued by NWS Charleston, WV

Current Version | Previous Version | Graphics & Text | Print | Product List | Glossary On
Versions: 1 2 3 4 5 6 7 8 9 10 11 12 13 14 15 16 17 18 19 20 21 22
000
FTUS41 KRLX 241500 AAA
TAFCRW
TAF AMD
KCRW 241505Z 2415/2512 20012G25KT P6SM BKN060
     FM241600 21014G29KT P6SM BKN080
     FM241800 23018G40KT P6SM SHRA BKN080
     FM242000 25014G26KT P6SM SCT080
     FM250000 26009KT P6SM SCT035=

USA.gov is the U.S. government's official web portal to all federal, state and local government web resources and services.